sensor_id;sensor_type;location;lat;lon;timestamp;temperature;humidity
13245;DHT22;6689;53.400;12.486;2023-09-12T00:02:15;20.10;99.90
13245;DHT22;6689;53.400;12.486;2023-09-12T00:04:43;20.00;99.90
13245;DHT22;6689;53.400;12.486;2023-09-12T00:07:10;20.00;99.90
13245;DHT22;6689;53.400;12.486;2023-09-12T00:09:38;20.00;99.90
13245;DHT22;6689;53.400;12.486;2023-09-12T00:12:05;20.00;99.90
13245;DHT22;6689;53.400;12.486;2023-09-12T00:14:35;19.90;99.90
13245;DHT22;6689;53.400;12.486;2023-09-12T00:17:03;19.80;99.90
13245;DHT22;6689;53.400;12.486;2023-09-12T00:19:30;19.90;99.90
13245;DHT22;6689;53.400;12.486;2023-09-12T00:21:58;19.90;99.90
13245;DHT22;6689;53.400;12.486;2023-09-12T00:24:25;19.80;99.90
13245;DHT22;6689;53.400;12.486;2023-09-12T00:26:53;19.80;99.90
13245;DHT22;6689;53.400;12.486;2023-09-12T00:29:20;19.80;99.90
13245;DHT22;6689;53.400;12.486;2023-09-12T00:31:49;19.80;99.90
13245;DHT22;6689;53.400;12.486;2023-09-12T00:34:17;19.80;99.90
13245;DHT22;6689;53.400;12.486;2023-09-12T00:36:44;19.80;99.90
13245;DHT22;6689;53.400;12.486;2023-09-12T00:39:12;19.80;99.90
13245;DHT22;6689;53.400;12.486;2023-09-12T00:41:39;19.70;99.90
13245;DHT22;6689;53.400;12.486;2023-09-12T00:44:06;19.70;99.90
13245;DHT22;6689;53.400;12.486;2023-09-12T00:46:34;19.70;99.90
13245;DHT22;6689;53.400;12.486;2023-09-12T00:49:05;19.70;99.90
13245;DHT22;6689;53.400;12.486;2023-09-12T00:51:34;19.70;99.90
13245;DHT22;6689;53.400;12.486;2023-09-12T00:54:02;19.60;99.90
13245;DHT22;6689;53.400;12.486;2023-09-12T00:56:29;19.60;99.90
13245;DHT22;6689;53.400;12.486;2023-09-12T00:58:57;19.60;99.90
13245;DHT22;6689;53.400;12.486;2023-09-12T01:01:25;19.60;99.90
13245;DHT22;6689;53.400;12.486;2023-09-12T01:03:52;19.60;99.90
13245;DHT22;6689;53.400;12.486;2023-09-12T01:06:24;19.50;99.90
13245;DHT22;6689;53.400;12.486;2023-09-12T01:08:53;19.60;99.90
13245;DHT22;6689;53.400;12.486;2023-09-12T01:11:21;19.50;99.90
13245;DHT22;6689;53.400;12.486;2023-09-12T01:13:48;19.50;99.90
13245;DHT22;6689;53.400;12.486;2023-09-12T01:16:15;19.50;99.90
13245;DHT22;6689;53.400;12.486;2023-09-12T01:18:43;19.50;99.90
13245;DHT22;6689;53.400;12.486;2023-09-12T01:27:34;19.40;99.90
13245;DHT22;6689;53.400;12.486;2023-09-12T01:30:04;19.30;99.90
13245;DHT22;6689;53.400;12.486;2023-09-12T01:32:32;19.30;99.90
13245;DHT22;6689;53.400;12.486;2023-09-12T01:35:00;19.30;99.90
13245;DHT22;6689;53.400;12.486;2023-09-12T01:37:29;19.30;99.90
13245;DHT22;6689;53.400;12.486;2023-09-12T01:40:00;19.40;99.90
13245;DHT22;6689;53.400;12.486;2023-09-12T01:42:31;19.30;99.90
13245;DHT22;6689;53.400;12.486;2023-09-12T01:45:03;19.30;99.90
13245;DHT22;6689;53.400;12.486;2023-09-12T01:47:31;19.30;99.90
13245;DHT22;6689;53.400;12.486;2023-09-12T01:50:01;19.30;99.90
13245;DHT22;6689;53.400;12.486;2023-09-12T01:52:29;19.30;99.90
13245;DHT22;6689;53.400;12.486;2023-09-12T01:54:56;19.20;99.90
13245;DHT22;6689;53.400;12.486;2023-09-12T01:57:24;19.20;99.90
13245;DHT22;6689;53.400;12.486;2023-09-12T01:59:53;19.20;99.90
13245;DHT22;6689;53.400;12.486;2023-09-12T02:02:21;19.20;99.90
13245;DHT22;6689;53.400;12.486;2023-09-12T02:04:52;19.10;99.90
13245;DHT22;6689;53.400;12.486;2023-09-12T02:07:22;19.20;99.90
13245;DHT22;6689;53.400;12.486;2023-09-12T02:09:50;19.10;99.90
13245;DHT22;6689;53.400;12.486;2023-09-12T02:12:18;19.10;99.90
13245;DHT22;6689;53.400;12.486;2023-09-12T02:14:45;19.10;99.90
13245;DHT22;6689;53.400;12.486;2023-09-12T02:17:14;19.00;99.90
13245;DHT22;6689;53.400;12.486;2023-09-12T02:19:41;19.00;99.90
13245;DHT22;6689;53.400;12.486;2023-09-12T02:22:08;19.10;99.90
13245;DHT22;6689;53.400;12.486;2023-09-12T02:24:36;19.10;99.90
13245;DHT22;6689;53.400;12.486;2023-09-12T02:27:04;19.10;99.90
13245;DHT22;6689;53.400;12.486;2023-09-12T02:29:32;19.00;99.90
13245;DHT22;6689;53.400;12.486;2023-09-12T02:31:59;19.00;99.90
13245;DHT22;6689;53.400;12.486;2023-09-12T02:34:28;19.00;99.90
13245;DHT22;6689;53.400;12.486;2023-09-12T02:36:55;19.00;99.90
13245;DHT22;6689;53.400;12.486;2023-09-12T02:39:23;19.00;99.90
13245;DHT22;6689;53.400;12.486;2023-09-12T02:41:50;19.00;99.90
13245;DHT22;6689;53.400;12.486;2023-09-12T02:44:18;19.00;99.90
13245;DHT22;6689;53.400;12.486;2023-09-12T02:46:45;19.00;99.90
13245;DHT22;6689;53.400;12.486;2023-09-12T02:49:14;18.90;99.90
13245;DHT22;6689;53.400;12.486;2023-09-12T02:51:43;18.90;99.90
13245;DHT22;6689;53.400;12.486;2023-09-12T02:54:10;18.90;99.90
13245;DHT22;6689;53.400;12.486;2023-09-12T02:56:37;18.90;99.90
13245;DHT22;6689;53.400;12.486;2023-09-12T02:59:04;18.90;99.90
13245;DHT22;6689;53.400;12.486;2023-09-12T03:01:32;18.90;99.90
13245;DHT22;6689;53.400;12.486;2023-09-12T03:03:59;18.90;99.90
13245;DHT22;6689;53.400;12.486;2023-09-12T03:06:28;18.90;99.90
13245;DHT22;6689;53.400;12.486;2023-09-12T03:08:57;18.80;99.90
13245;DHT22;6689;53.400;12.486;2023-09-12T03:11:26;18.80;99.90
13245;DHT22;6689;53.400;12.486;2023-09-12T03:13:53;18.80;99.90
13245;DHT22;6689;53.400;12.486;2023-09-12T03:16:21;18.80;99.90
13245;DHT22;6689;53.400;12.486;2023-09-12T03:18:50;18.80;99.90
13245;DHT22;6689;53.400;12.486;2023-09-12T03:21:17;18.70;99.90
13245;DHT22;6689;53.400;12.486;2023-09-12T03:23:44;18.70;99.90
13245;DHT22;6689;53.400;12.486;2023-09-12T03:26:13;18.60;99.90
13245;DHT22;6689;53.400;12.486;2023-09-12T03:28:41;18.70;99.90
13245;DHT22;6689;53.400;12.486;2023-09-12T03:31:10;18.60;99.90
13245;DHT22;6689;53.400;12.486;2023-09-12T03:33:39;18.70;99.90
13245;DHT22;6689;53.400;12.486;2023-09-12T03:36:07;18.70;99.90
13245;DHT22;6689;53.400;12.486;2023-09-12T03:38:34;18.70;99.90
13245;DHT22;6689;53.400;12.486;2023-09-12T03:41:02;18.70;99.90
13245;DHT22;6689;53.400;12.486;2023-09-12T03:43:32;18.70;99.90
13245;DHT22;6689;53.400;12.486;2023-09-12T03:46:00;18.60;99.90
13245;DHT22;6689;53.400;12.486;2023-09-12T03:48:29;18.60;99.90
13245;DHT22;6689;53.400;12.486;2023-09-12T03:50:57;18.60;99.90
13245;DHT22;6689;53.400;12.486;2023-09-12T03:53:25;18.60;99.90
13245;DHT22;6689;53.400;12.486;2023-09-12T03:55:53;18.60;99.90
13245;DHT22;6689;53.400;12.486;2023-09-12T03:58:21;18.70;99.90
13245;DHT22;6689;53.400;12.486;2023-09-12T04:00:50;18.70;99.90
13245;DHT22;6689;53.400;12.486;2023-09-12T04:03:17;18.70;99.90
13245;DHT22;6689;53.400;12.486;2023-09-12T04:05:46;18.70;99.90
13245;DHT22;6689;53.400;12.486;2023-09-12T04:08:14;18.70;99.90
13245;DHT22;6689;53.400;12.486;2023-09-12T04:10:41;18.70;99.90
13245;DHT22;6689;53.400;12.486;2023-09-12T04:13:08;18.70;99.90
13245;DHT22;6689;53.400;12.486;2023-09-12T04:15:35;18.70;99.90
13245;DHT22;6689;53.400;12.486;2023-09-12T04:18:04;18.70;99.90
13245;DHT22;6689;53.400;12.486;2023-09-12T04:20:32;18.60;99.90
13245;DHT22;6689;53.400;12.486;2023-09-12T04:23:01;18.50;99.90
13245;DHT22;6689;53.400;12.486;2023-09-12T04:25:31;18.50;99.90
13245;DHT22;6689;53.400;12.486;2023-09-12T04:27:59;18.50;99.90
13245;DHT22;6689;53.400;12.486;2023-09-12T04:30:26;18.50;99.90
13245;DHT22;6689;53.400;12.486;2023-09-12T04:32:54;18.50;99.90
13245;DHT22;6689;53.400;12.486;2023-09-12T04:35:22;18.50;99.90
13245;DHT22;6689;53.400;12.486;2023-09-12T04:37:50;18.50;99.90
13245;DHT22;6689;53.400;12.486;2023-09-12T04:40:18;18.50;99.90
13245;DHT22;6689;53.400;12.486;2023-09-12T04:42:45;18.50;99.90
13245;DHT22;6689;53.400;12.486;2023-09-12T04:45:13;18.50;99.90
13245;DHT22;6689;53.400;12.486;2023-09-12T04:47:40;18.50;99.90
13245;DHT22;6689;53.400;12.486;2023-09-12T04:50:08;18.50;99.90
13245;DHT22;6689;53.400;12.486;2023-09-12T04:52:38;18.60;99.90
13245;DHT22;6689;53.400;12.486;2023-09-12T04:55:06;18.50;99.90
13245;DHT22;6689;53.400;12.486;2023-09-12T04:57:33;18.60;99.90
13245;DHT22;6689;53.400;12.486;2023-09-12T05:00:01;18.60;99.90
13245;DHT22;6689;53.400;12.486;2023-09-12T05:02:32;18.60;99.90
13245;DHT22;6689;53.400;12.486;2023-09-12T05:04:59;18.70;99.90
13245;DHT22;6689;53.400;12.486;2023-09-12T05:07:26;18.70;99.90
13245;DHT22;6689;53.400;12.486;2023-09-12T05:09:55;18.70;99.90
13245;DHT22;6689;53.400;12.486;2023-09-12T05:12:22;18.70;99.90
13245;DHT22;6689;53.400;12.486;2023-09-12T05:14:50;18.70;99.90
13245;DHT22;6689;53.400;12.486;2023-09-12T05:17:17;18.80;99.90
13245;DHT22;6689;53.400;12.486;2023-09-12T05:19:44;18.80;99.90
13245;DHT22;6689;53.400;12.486;2023-09-12T05:22:12;18.80;99.90
13245;DHT22;6689;53.400;12.486;2023-09-12T05:24:39;18.80;99.90
13245;DHT22;6689;53.400;12.486;2023-09-12T05:27:08;18.90;99.90
13245;DHT22;6689;53.400;12.486;2023-09-12T05:29:35;18.90;99.90
13245;DHT22;6689;53.400;12.486;2023-09-12T05:32:06;18.90;99.90
13245;DHT22;6689;53.400;12.486;2023-09-12T05:34:33;18.70;99.90
13245;DHT22;6689;53.400;12.486;2023-09-12T05:37:00;18.90;99.90
13245;DHT22;6689;53.400;12.486;2023-09-12T05:39:28;19.00;99.90
13245;DHT22;6689;53.400;12.486;2023-09-12T05:41:55;19.00;99.90
13245;DHT22;6689;53.400;12.486;2023-09-12T05:44:24;19.20;99.90
13245;DHT22;6689;53.400;12.486;2023-09-12T05:46:51;19.30;99.90
13245;DHT22;6689;53.400;12.486;2023-09-12T05:49:19;19.40;99.90
13245;DHT22;6689;53.400;12.486;2023-09-12T05:51:46;19.50;99.90
13245;DHT22;6689;53.400;12.486;2023-09-12T05:54:14;19.60;99.90
13245;DHT22;6689;53.400;12.486;2023-09-12T05:56:41;19.60;99.90
13245;DHT22;6689;53.400;12.486;2023-09-12T05:59:08;19.70;99.90
13245;DHT22;6689;53.400;12.486;2023-09-12T06:01:37;19.70;99.90
13245;DHT22;6689;53.400;12.486;2023-09-12T06:04:05;19.80;99.90
13245;DHT22;6689;53.400;12.486;2023-09-12T06:06:32;19.90;99.90
13245;DHT22;6689;53.400;12.486;2023-09-12T06:08:59;20.00;99.90
13245;DHT22;6689;53.400;12.486;2023-09-12T06:11:26;20.10;99.90
13245;DHT22;6689;53.400;12.486;2023-09-12T06:13:54;20.10;99.90
13245;DHT22;6689;53.400;12.486;2023-09-12T06:16:21;20.10;99.90
13245;DHT22;6689;53.400;12.486;2023-09-12T06:18:50;20.10;99.90
13245;DHT22;6689;53.400;12.486;2023-09-12T06:21:20;20.20;99.90
13245;DHT22;6689;53.400;12.486;2023-09-12T06:24:07;20.30;99.90
13245;DHT22;6689;53.400;12.486;2023-09-12T06:26:35;20.40;99.90
13245;DHT22;6689;53.400;12.486;2023-09-12T06:29:03;20.50;99.90
13245;DHT22;6689;53.400;12.486;2023-09-12T06:31:30;20.60;99.90
13245;DHT22;6689;53.400;12.486;2023-09-12T06:33:59;20.80;99.90
13245;DHT22;6689;53.400;12.486;2023-09-12T06:36:26;20.90;99.90
13245;DHT22;6689;53.400;12.486;2023-09-12T06:38:55;21.00;99.90
13245;DHT22;6689;53.400;12.486;2023-09-12T06:41:22;21.10;99.90
13245;DHT22;6689;53.400;12.486;2023-09-12T06:43:49;21.10;99.90
13245;DHT22;6689;53.400;12.486;2023-09-12T06:46:17;21.20;99.90
13245;DHT22;6689;53.400;12.486;2023-09-12T06:48:44;21.40;99.90
13245;DHT22;6689;53.400;12.486;2023-09-12T06:51:16;21.40;99.90
13245;DHT22;6689;53.400;12.486;2023-09-12T06:53:43;21.60;99.90
13245;DHT22;6689;53.400;12.486;2023-09-12T06:56:11;21.90;99.90
13245;DHT22;6689;53.400;12.486;2023-09-12T06:58:38;22.20;99.90
13245;DHT22;6689;53.400;12.486;2023-09-12T07:01:06;22.60;99.90
13245;DHT22;6689;53.400;12.486;2023-09-12T07:03:34;23.00;99.90
13245;DHT22;6689;53.400;12.486;2023-09-12T07:06:02;23.20;99.90
13245;DHT22;6689;53.400;12.486;2023-09-12T07:08:32;23.60;99.90
13245;DHT22;6689;53.400;12.486;2023-09-12T07:11:00;23.50;99.90
13245;DHT22;6689;53.400;12.486;2023-09-12T07:13:31;23.40;99.90
13245;DHT22;6689;53.400;12.486;2023-09-12T07:15:59;23.20;99.90
13245;DHT22;6689;53.400;12.486;2023-09-12T07:18:29;22.80;99.90
13245;DHT22;6689;53.400;12.486;2023-09-12T07:20:58;22.80;99.90
13245;DHT22;6689;53.400;12.486;2023-09-12T07:23:25;23.50;99.90
13245;DHT22;6689;53.400;12.486;2023-09-12T07:25:58;23.40;99.90
13245;DHT22;6689;53.400;12.486;2023-09-12T07:28:26;24.20;99.90
13245;DHT22;6689;53.400;12.486;2023-09-12T07:30:54;24.30;99.90
13245;DHT22;6689;53.400;12.486;2023-09-12T07:33:39;23.90;99.90
13245;DHT22;6689;53.400;12.486;2023-09-12T07:36:07;25.30;99.90
13245;DHT22;6689;53.400;12.486;2023-09-12T07:38:34;25.10;99.90
13245;DHT22;6689;53.400;12.486;2023-09-12T07:41:05;24.70;99.90
13245;DHT22;6689;53.400;12.486;2023-09-12T07:43:32;27.50;99.90
13245;DHT22;6689;53.400;12.486;2023-09-12T07:46:00;28.80;82.60
13245;DHT22;6689;53.400;12.486;2023-09-12T07:48:27;29.50;54.60
13245;DHT22;6689;53.400;12.486;2023-09-12T07:50:54;30.50;24.70
13245;DHT22;6689;53.400;12.486;2023-09-12T07:53:22;31.30;4.60
13245;DHT22;6689;53.400;12.486;2023-09-12T07:55:49;32.50;1.00
13245;DHT22;6689;53.400;12.486;2023-09-12T07:58:18;33.50;1.00
13245;DHT22;6689;53.400;12.486;2023-09-12T08:00:45;34.00;1.00
13245;DHT22;6689;53.400;12.486;2023-09-12T08:03:13;34.30;1.00
13245;DHT22;6689;53.400;12.486;2023-09-12T08:05:40;35.00;1.00
13245;DHT22;6689;53.400;12.486;2023-09-12T08:08:07;34.00;1.00
13245;DHT22;6689;53.400;12.486;2023-09-12T08:10:35;33.30;1.00
13245;DHT22;6689;53.400;12.486;2023-09-12T08:13:02;32.30;1.00
13245;DHT22;6689;53.400;12.486;2023-09-12T08:15:31;33.50;1.00
13245;DHT22;6689;53.400;12.486;2023-09-12T08:17:58;33.60;1.00
13245;DHT22;6689;53.400;12.486;2023-09-12T08:20:25;33.50;1.00
13245;DHT22;6689;53.400;12.486;2023-09-12T08:22:52;31.70;1.00
13245;DHT22;6689;53.400;12.486;2023-09-12T08:25:19;31.00;1.00
13245;DHT22;6689;53.400;12.486;2023-09-12T08:27:46;30.50;1.00
13245;DHT22;6689;53.400;12.486;2023-09-12T08:30:15;29.80;1.00
13245;DHT22;6689;53.400;12.486;2023-09-12T08:32:43;29.30;1.00
13245;DHT22;6689;53.400;12.486;2023-09-12T08:35:11;29.00;1.00
13245;DHT22;6689;53.400;12.486;2023-09-12T08:37:39;28.90;1.00
13245;DHT22;6689;53.400;12.486;2023-09-12T08:40:08;28.70;1.00
13245;DHT22;6689;53.400;12.486;2023-09-12T08:42:39;28.20;1.00
13245;DHT22;6689;53.400;12.486;2023-09-12T08:45:12;28.10;3.00
13245;DHT22;6689;53.400;12.486;2023-09-12T08:47:43;27.90;5.30
13245;DHT22;6689;53.400;12.486;2023-09-12T08:50:11;27.80;10.20
13245;DHT22;6689;53.400;12.486;2023-09-12T08:52:40;27.50;11.60
13245;DHT22;6689;53.400;12.486;2023-09-12T08:55:08;27.20;14.00
13245;DHT22;6689;53.400;12.486;2023-09-12T08:57:38;27.00;23.50
13245;DHT22;6689;53.400;12.486;2023-09-12T09:00:06;26.90;29.00
13245;DHT22;6689;53.400;12.486;2023-09-12T09:02:35;26.70;29.60
13245;DHT22;6689;53.400;12.486;2023-09-12T09:05:06;26.70;31.00
13245;DHT22;6689;53.400;12.486;2023-09-12T09:07:35;26.70;30.20
13245;DHT22;6689;53.400;12.486;2023-09-12T09:10:05;26.90;30.70
13245;DHT22;6689;53.400;12.486;2023-09-12T09:12:34;27.00;38.80
13245;DHT22;6689;53.400;12.486;2023-09-12T09:15:19;27.10;26.00
13245;DHT22;6689;53.400;12.486;2023-09-12T09:17:46;27.20;10.40
13245;DHT22;6689;53.400;12.486;2023-09-12T09:20:24;27.20;16.60
13245;DHT22;6689;53.400;12.486;2023-09-12T09:22:59;26.90;11.70
13245;DHT22;6689;53.400;12.486;2023-09-12T09:25:26;26.50;12.40
13245;DHT22;6689;53.400;12.486;2023-09-12T09:27:54;26.30;18.20
13245;DHT22;6689;53.400;12.486;2023-09-12T09:30:39;26.20;23.90
13245;DHT22;6689;53.400;12.486;2023-09-12T09:33:07;26.00;21.90
13245;DHT22;6689;53.400;12.486;2023-09-12T09:35:36;25.70;22.90
13245;DHT22;6689;53.400;12.486;2023-09-12T09:38:05;25.50;29.70
13245;DHT22;6689;53.400;12.486;2023-09-12T09:40:33;25.30;40.40
13245;DHT22;6689;53.400;12.486;2023-09-12T09:43:02;25.10;38.90
13245;DHT22;6689;53.400;12.486;2023-09-12T09:45:31;25.10;42.70
13245;DHT22;6689;53.400;12.486;2023-09-12T09:47:59;25.00;47.70
13245;DHT22;6689;53.400;12.486;2023-09-12T09:50:33;24.90;50.10
13245;DHT22;6689;53.400;12.486;2023-09-12T09:53:04;24.90;57.80
13245;DHT22;6689;53.400;12.486;2023-09-12T09:55:34;24.70;59.90
13245;DHT22;6689;53.400;12.486;2023-09-12T09:58:01;24.70;71.90
13245;DHT22;6689;53.400;12.486;2023-09-12T10:00:29;24.50;68.90
13245;DHT22;6689;53.400;12.486;2023-09-12T10:03:00;24.40;75.10
13245;DHT22;6689;53.400;12.486;2023-09-12T10:05:29;24.40;73.80
13245;DHT22;6689;53.400;12.486;2023-09-12T10:07:59;24.30;80.80
13245;DHT22;6689;53.400;12.486;2023-09-12T10:10:32;24.20;88.30
13245;DHT22;6689;53.400;12.486;2023-09-12T10:13:03;24.10;96.30
13245;DHT22;6689;53.400;12.486;2023-09-12T10:15:32;24.10;94.60
13245;DHT22;6689;53.400;12.486;2023-09-12T10:18:04;24.00;91.10
13245;DHT22;6689;53.400;12.486;2023-09-12T10:20:37;24.00;99.90
13245;DHT22;6689;53.400;12.486;2023-09-12T10:23:08;23.90;99.10
13245;DHT22;6689;53.400;12.486;2023-09-12T10:25:38;23.70;97.30
13245;DHT22;6689;53.400;12.486;2023-09-12T10:28:07;23.70;99.90
13245;DHT22;6689;53.400;12.486;2023-09-12T10:30:35;23.70;99.90
13245;DHT22;6689;53.400;12.486;2023-09-12T10:33:03;23.70;99.90
13245;DHT22;6689;53.400;12.486;2023-09-12T10:35:32;23.40;99.90
13245;DHT22;6689;53.400;12.486;2023-09-12T10:38:02;23.40;99.90
13245;DHT22;6689;53.400;12.486;2023-09-12T10:40:31;23.40;99.90
13245;DHT22;6689;53.400;12.486;2023-09-12T10:43:00;23.30;99.90
13245;DHT22;6689;53.400;12.486;2023-09-12T10:45:31;23.40;99.90
13245;DHT22;6689;53.400;12.486;2023-09-12T10:47:59;23.40;99.90
13245;DHT22;6689;53.400;12.486;2023-09-12T10:50:28;23.30;99.90
13245;DHT22;6689;53.400;12.486;2023-09-12T10:53:01;23.30;99.90
13245;DHT22;6689;53.400;12.486;2023-09-12T10:55:34;23.20;99.90
13245;DHT22;6689;53.400;12.486;2023-09-12T10:58:05;23.40;99.90
13245;DHT22;6689;53.400;12.486;2023-09-12T11:00:32;23.50;99.90
13245;DHT22;6689;53.400;12.486;2023-09-12T11:03:35;23.60;99.90
13245;DHT22;6689;53.400;12.486;2023-09-12T11:05:58;23.50;99.90
13245;DHT22;6689;53.400;12.486;2023-09-12T11:08:27;23.70;99.90
13245;DHT22;6689;53.400;12.486;2023-09-12T11:11:16;23.80;99.90
13245;DHT22;6689;53.400;12.486;2023-09-12T11:13:45;24.00;99.90
13245;DHT22;6689;53.400;12.486;2023-09-12T11:16:14;24.00;99.90
13245;DHT22;6689;53.400;12.486;2023-09-12T11:19:17;24.10;99.90
13245;DHT22;6689;53.400;12.486;2023-09-12T11:21:47;24.20;99.90
13245;DHT22;6689;53.400;12.486;2023-09-12T11:24:15;24.20;99.90
13245;DHT22;6689;53.400;12.486;2023-09-12T11:26:54;24.20;99.90
13245;DHT22;6689;53.400;12.486;2023-09-12T11:29:27;24.30;99.90
13245;DHT22;6689;53.400;12.486;2023-09-12T11:31:55;24.00;99.90
13245;DHT22;6689;53.400;12.486;2023-09-12T11:34:27;24.30;99.90
13245;DHT22;6689;53.400;12.486;2023-09-12T11:36:56;24.60;99.90
13245;DHT22;6689;53.400;12.486;2023-09-12T11:39:27;24.90;99.90
13245;DHT22;6689;53.400;12.486;2023-09-12T11:41:56;24.80;99.90
13245;DHT22;6689;53.400;12.486;2023-09-12T11:44:25;25.00;99.90
13245;DHT22;6689;53.400;12.486;2023-09-12T11:46:53;24.80;99.90
13245;DHT22;6689;53.400;12.486;2023-09-12T11:49:21;24.90;99.90
13245;DHT22;6689;53.400;12.486;2023-09-12T11:51:49;25.10;99.90
13245;DHT22;6689;53.400;12.486;2023-09-12T11:54:24;25.10;99.90
13245;DHT22;6689;53.400;12.486;2023-09-12T11:56:53;25.40;99.90
13245;DHT22;6689;53.400;12.486;2023-09-12T11:59:22;25.70;99.90
13245;DHT22;6689;53.400;12.486;2023-09-12T12:01:51;26.00;99.90
13245;DHT22;6689;53.400;12.486;2023-09-12T12:04:20;26.30;99.90
13245;DHT22;6689;53.400;12.486;2023-09-12T12:06:48;26.40;99.90
13245;DHT22;6689;53.400;12.486;2023-09-12T12:09:15;26.50;99.90
13245;DHT22;6689;53.400;12.486;2023-09-12T12:11:45;26.60;99.90
13245;DHT22;6689;53.400;12.486;2023-09-12T12:14:13;26.50;99.90
13245;DHT22;6689;53.400;12.486;2023-09-12T12:16:41;26.60;99.90
13245;DHT22;6689;53.400;12.486;2023-09-12T12:19:11;26.60;99.90
13245;DHT22;6689;53.400;12.486;2023-09-12T12:21:38;26.60;99.90
13245;DHT22;6689;53.400;12.486;2023-09-12T12:24:11;26.60;99.90
13245;DHT22;6689;53.400;12.486;2023-09-12T12:26:41;26.60;99.90
13245;DHT22;6689;53.400;12.486;2023-09-12T12:29:09;26.60;99.90
13245;DHT22;6689;53.400;12.486;2023-09-12T12:31:37;26.60;99.90
13245;DHT22;6689;53.400;12.486;2023-09-12T12:34:05;26.40;99.90
13245;DHT22;6689;53.400;12.486;2023-09-12T12:36:41;26.50;99.90
13245;DHT22;6689;53.400;12.486;2023-09-12T12:39:10;26.60;99.90
13245;DHT22;6689;53.400;12.486;2023-09-12T12:41:38;26.70;99.90
13245;DHT22;6689;53.400;12.486;2023-09-12T12:44:06;26.90;99.90
13245;DHT22;6689;53.400;12.486;2023-09-12T12:46:33;26.90;99.90
13245;DHT22;6689;53.400;12.486;2023-09-12T12:49:01;26.80;99.90
13245;DHT22;6689;53.400;12.486;2023-09-12T12:51:28;26.90;99.90
13245;DHT22;6689;53.400;12.486;2023-09-12T12:54:03;27.00;99.90
13245;DHT22;6689;53.400;12.486;2023-09-12T12:56:31;27.10;90.00
13245;DHT22;6689;53.400;12.486;2023-09-12T12:59:00;27.10;85.70
13245;DHT22;6689;53.400;12.486;2023-09-12T13:01:28;27.00;84.60
13245;DHT22;6689;53.400;12.486;2023-09-12T13:03:56;26.90;78.30
13245;DHT22;6689;53.400;12.486;2023-09-12T13:06:23;27.00;84.20
13245;DHT22;6689;53.400;12.486;2023-09-12T13:08:53;27.10;74.50
13245;DHT22;6689;53.400;12.486;2023-09-12T13:11:24;26.90;62.90
13245;DHT22;6689;53.400;12.486;2023-09-12T13:13:52;26.80;76.10
13245;DHT22;6689;53.400;12.486;2023-09-12T13:16:20;26.90;76.10
13245;DHT22;6689;53.400;12.486;2023-09-12T13:18:47;26.60;79.10
13245;DHT22;6689;53.400;12.486;2023-09-12T13:21:14;26.70;81.20
13245;DHT22;6689;53.400;12.486;2023-09-12T13:23:41;26.80;86.10
13245;DHT22;6689;53.400;12.486;2023-09-12T13:26:09;26.90;92.40
13245;DHT22;6689;53.400;12.486;2023-09-12T13:28:38;26.80;85.10
13245;DHT22;6689;53.400;12.486;2023-09-12T13:31:07;26.70;82.80
13245;DHT22;6689;53.400;12.486;2023-09-12T13:33:34;26.60;81.90
13245;DHT22;6689;53.400;12.486;2023-09-12T13:36:01;26.60;91.00
13245;DHT22;6689;53.400;12.486;2023-09-12T13:38:29;26.30;93.50
13245;DHT22;6689;53.400;12.486;2023-09-12T13:40:56;26.30;99.90
13245;DHT22;6689;53.400;12.486;2023-09-12T13:43:23;26.00;97.10
13245;DHT22;6689;53.400;12.486;2023-09-12T13:45:53;26.20;99.90
13245;DHT22;6689;53.400;12.486;2023-09-12T13:48:23;26.10;99.90
13245;DHT22;6689;53.400;12.486;2023-09-12T13:50:51;26.00;95.50
13245;DHT22;6689;53.400;12.486;2023-09-12T13:53:19;26.00;99.90
13245;DHT22;6689;53.400;12.486;2023-09-12T13:55:46;26.00;99.90
13245;DHT22;6689;53.400;12.486;2023-09-12T13:58:13;26.10;99.90
13245;DHT22;6689;53.400;12.486;2023-09-12T14:00:41;26.10;99.90
13245;DHT22;6689;53.400;12.486;2023-09-12T14:03:10;26.00;99.90
13245;DHT22;6689;53.400;12.486;2023-09-12T14:05:38;26.00;99.90
13245;DHT22;6689;53.400;12.486;2023-09-12T14:08:05;25.70;99.90
13245;DHT22;6689;53.400;12.486;2023-09-12T14:10:32;25.70;99.90
13245;DHT22;6689;53.400;12.486;2023-09-12T14:13:00;25.70;99.90
13245;DHT22;6689;53.400;12.486;2023-09-12T14:15:27;25.60;99.90
13245;DHT22;6689;53.400;12.486;2023-09-12T14:17:54;25.50;99.90
13245;DHT22;6689;53.400;12.486;2023-09-12T14:20:23;25.40;99.90
13245;DHT22;6689;53.400;12.486;2023-09-12T14:22:50;25.30;99.90
13245;DHT22;6689;53.400;12.486;2023-09-12T14:25:18;25.30;99.90
13245;DHT22;6689;53.400;12.486;2023-09-12T14:27:45;25.40;99.90
13245;DHT22;6689;53.400;12.486;2023-09-12T14:30:13;25.30;99.90
13245;DHT22;6689;53.400;12.486;2023-09-12T14:32:40;25.30;99.90
13245;DHT22;6689;53.400;12.486;2023-09-12T14:35:08;25.20;99.90
13245;DHT22;6689;53.400;12.486;2023-09-12T14:37:37;25.10;99.90
13245;DHT22;6689;53.400;12.486;2023-09-12T14:40:05;25.10;99.90
13245;DHT22;6689;53.400;12.486;2023-09-12T14:42:33;25.20;99.90
13245;DHT22;6689;53.400;12.486;2023-09-12T14:45:00;25.10;99.90
13245;DHT22;6689;53.400;12.486;2023-09-12T14:47:27;25.20;99.90
13245;DHT22;6689;53.400;12.486;2023-09-12T14:49:56;25.00;99.90
13245;DHT22;6689;53.400;12.486;2023-09-12T14:52:23;25.20;99.90
13245;DHT22;6689;53.400;12.486;2023-09-12T14:54:54;25.20;99.90
13245;DHT22;6689;53.400;12.486;2023-09-12T14:57:23;25.30;99.90
13245;DHT22;6689;53.400;12.486;2023-09-12T14:59:51;25.30;99.90
13245;DHT22;6689;53.400;12.486;2023-09-12T15:02:18;25.40;99.90
13245;DHT22;6689;53.400;12.486;2023-09-12T15:04:45;25.50;99.90
13245;DHT22;6689;53.400;12.486;2023-09-12T15:07:12;25.50;99.90
13245;DHT22;6689;53.400;12.486;2023-09-12T15:09:40;25.50;99.90
13245;DHT22;6689;53.400;12.486;2023-09-12T15:12:10;25.50;99.90
13245;DHT22;6689;53.400;12.486;2023-09-12T15:14:37;25.50;99.90
13245;DHT22;6689;53.400;12.486;2023-09-12T15:17:04;25.50;99.90
13245;DHT22;6689;53.400;12.486;2023-09-12T15:19:31;25.50;99.90
13245;DHT22;6689;53.400;12.486;2023-09-12T15:21:58;25.50;99.90
13245;DHT22;6689;53.400;12.486;2023-09-12T15:24:26;25.50;99.90
13245;DHT22;6689;53.400;12.486;2023-09-12T15:26:53;25.70;99.90
13245;DHT22;6689;53.400;12.486;2023-09-12T15:29:22;25.60;99.90
13245;DHT22;6689;53.400;12.486;2023-09-12T15:31:49;25.70;99.90
13245;DHT22;6689;53.400;12.486;2023-09-12T15:34:16;25.60;99.90
13245;DHT22;6689;53.400;12.486;2023-09-12T15:36:45;25.60;99.90
13245;DHT22;6689;53.400;12.486;2023-09-12T15:39:13;25.50;99.90
13245;DHT22;6689;53.400;12.486;2023-09-12T15:41:41;25.50;99.90
13245;DHT22;6689;53.400;12.486;2023-09-12T15:44:08;25.50;99.90
13245;DHT22;6689;53.400;12.486;2023-09-12T15:46:37;25.40;99.90
13245;DHT22;6689;53.400;12.486;2023-09-12T15:49:05;25.40;99.90